createdAt,value
2022-08-10T00:03:01.125Z,19.66
2022-08-10T00:05:53.244Z,19.72
2022-08-10T00:08:41.909Z,19.80
2022-08-10T00:11:29.856Z,19.85
2022-08-10T00:14:18.689Z,19.86
2022-08-10T00:17:06.475Z,19.88
2022-08-10T00:20:03.395Z,19.90
2022-08-10T00:22:57.552Z,19.98
2022-08-10T00:25:46.585Z,20.00
2022-08-10T00:28:35.320Z,19.89
2022-08-10T00:31:23.651Z,19.01
2022-08-10T00:34:11.797Z,17.90
2022-08-10T00:37:02.610Z,17.46
2022-08-10T00:39:50.665Z,18.15
2022-08-10T00:42:38.579Z,18.65
2022-08-10T00:45:26.619Z,19.00
2022-08-10T00:48:14.784Z,19.19
2022-08-10T00:51:02.849Z,19.30
2022-08-10T00:53:50.947Z,19.38
2022-08-10T00:57:16.583Z,19.48
2022-08-10T00:59:57.896Z,19.54
2022-08-10T01:02:47.521Z,19.58
2022-08-10T01:05:51.279Z,19.62
2022-08-10T01:08:59.257Z,19.66
2022-08-10T01:12:37.588Z,19.67
2022-08-10T01:15:32.266Z,19.69
2022-08-10T01:19:17.141Z,19.67
2022-08-10T01:22:33.777Z,19.63
2022-08-10T01:26:11.946Z,19.65
2022-08-10T01:29:35.157Z,19.66
2022-08-10T01:32:50.545Z,19.66
2022-08-10T01:35:47.255Z,19.65
2022-08-10T01:38:42.707Z,19.61
2022-08-10T01:41:46.522Z,19.57
2022-08-10T01:44:40.420Z,19.55
2022-08-10T01:47:58.097Z,19.57
2022-08-10T01:50:59.346Z,19.54
2022-08-10T01:54:13.448Z,19.51
2022-08-10T01:57:03.247Z,19.43
2022-08-10T01:59:58.742Z,19.40
2022-08-10T02:02:58.206Z,19.31
2022-08-10T02:05:53.442Z,19.29
2022-08-10T02:08:46.270Z,19.23
2022-08-10T02:12:06.377Z,19.23
2022-08-10T02:14:57.028Z,19.18
2022-08-10T02:18:01.991Z,19.21
2022-08-10T02:20:53.528Z,19.20
2022-08-10T02:23:43.723Z,19.22
2022-08-10T02:26:33.581Z,19.23
2022-08-10T02:29:22.312Z,19.24
2022-08-10T02:32:12.742Z,19.23
2022-08-10T02:35:22.012Z,19.20
2022-08-10T02:38:13.938Z,19.18
2022-08-10T02:42:18.645Z,19.20
2022-08-10T02:45:26.673Z,19.14
2022-08-10T02:48:13.490Z,19.16
2022-08-10T02:51:11.741Z,19.18
2022-08-10T02:54:09.084Z,19.17
2022-08-10T02:57:11.454Z,19.16
2022-08-10T03:00:07.836Z,19.15
2022-08-10T03:02:58.252Z,19.16
2022-08-10T03:05:50.060Z,19.16
2022-08-10T03:08:44.124Z,19.17
2022-08-10T03:12:35.849Z,19.15
2022-08-10T03:14:44.876Z,19.12
2022-08-10T03:17:33.654Z,19.12
2022-08-10T03:20:36.534Z,19.15
2022-08-10T03:23:28.624Z,19.14
2022-08-10T03:26:20.512Z,19.10
2022-08-10T03:29:10.297Z,19.07
2022-08-10T03:31:59.468Z,19.07
2022-08-10T03:34:48.323Z,19.05
2022-08-10T03:37:36.871Z,19.03
2022-08-10T03:40:44.715Z,19.07
2022-08-10T03:43:34.772Z,19.10
2022-08-10T03:46:28.545Z,19.12
2022-08-10T03:49:19.517Z,19.16
2022-08-10T03:52:10.396Z,19.19
2022-08-10T03:54:59.942Z,19.24
2022-08-10T03:57:49.765Z,19.26
2022-08-10T04:00:39.335Z,19.30
2022-08-10T04:03:29.251Z,19.36
2022-08-10T04:06:17.841Z,19.36
2022-08-10T04:09:06.320Z,19.36
2022-08-10T04:11:54.217Z,19.44
2022-08-10T04:14:48.945Z,19.50
2022-08-10T04:17:56.888Z,19.51
2022-08-10T04:20:57.311Z,19.58
2022-08-10T04:23:53.082Z,19.67
2022-08-10T04:26:42.556Z,19.76
2022-08-10T04:29:31.110Z,19.81
2022-08-10T04:32:22.510Z,19.91
2022-08-10T04:35:12.568Z,20.00
2022-08-10T04:38:08.639Z,20.08
2022-08-10T04:40:57.319Z,20.13
2022-08-10T04:43:46.310Z,20.21
2022-08-10T04:46:55.233Z,20.27
2022-08-10T04:49:56.081Z,20.33
2022-08-10T04:52:45.142Z,20.44
2022-08-10T04:55:33.031Z,20.60
2022-08-10T04:58:21.077Z,20.75
2022-08-10T05:01:08.880Z,20.87
2022-08-10T05:04:35.447Z,20.68
2022-08-10T05:07:18.673Z,19.57
2022-08-10T05:10:11.624Z,18.68
2022-08-10T05:13:01.210Z,18.47
2022-08-10T05:15:52.131Z,19.41
2022-08-10T05:18:40.571Z,20.14
2022-08-10T05:21:56.428Z,20.59
2022-08-10T05:24:37.190Z,21.03
2022-08-10T05:27:25.068Z,21.56
2022-08-10T05:30:18.912Z,22.58
2022-08-10T05:33:09.003Z,23.85
2022-08-10T05:35:58.587Z,24.73
2022-08-10T05:38:48.829Z,25.80
2022-08-10T05:41:42.711Z,26.89
2022-08-10T05:44:33.825Z,27.99
2022-08-10T05:47:22.245Z,28.98
2022-08-10T05:50:11.781Z,29.90
2022-08-10T05:53:03.736Z,30.71
2022-08-10T05:56:09.534Z,31.49
2022-08-10T05:58:57.306Z,32.18
2022-08-10T06:02:31.215Z,32.73
2022-08-10T06:05:05.152Z,33.32
2022-08-10T06:08:14.134Z,33.76
2022-08-10T06:12:26.527Z,34.15
2022-08-10T06:14:36.943Z,34.47
2022-08-10T06:17:26.306Z,34.69
2022-08-10T06:20:14.619Z,34.91
2022-08-10T06:23:05.118Z,35.14
2022-08-10T06:26:10.367Z,35.32
2022-08-10T06:29:10.163Z,35.39
2022-08-10T06:32:00.903Z,35.43
2022-08-10T06:34:54.134Z,35.53
2022-08-10T06:37:50.783Z,35.62
2022-08-10T06:40:46.040Z,35.84
2022-08-10T06:43:35.572Z,35.80
2022-08-10T06:46:25.642Z,35.35
2022-08-10T06:49:16.391Z,35.38
2022-08-10T06:52:12.329Z,35.57
2022-08-10T06:55:11.414Z,35.37
2022-08-10T06:58:03.856Z,34.98
2022-08-10T07:00:56.479Z,34.25
2022-08-10T07:03:59.311Z,33.12
2022-08-10T07:06:50.819Z,31.50
2022-08-10T07:09:41.220Z,30.09
2022-08-10T07:12:32.131Z,29.00
2022-08-10T07:15:22.930Z,28.60
2022-08-10T07:18:32.842Z,29.15
2022-08-10T07:21:22.710Z,30.32
2022-08-10T07:24:16.797Z,31.64
2022-08-10T07:27:05.632Z,33.37
2022-08-10T07:29:55.990Z,35.10
2022-08-10T07:32:48.812Z,36.45
2022-08-10T07:35:43.191Z,37.56
2022-08-10T07:38:34.207Z,38.49
2022-08-10T07:41:25.267Z,39.34
2022-08-10T07:44:14.406Z,40.14
2022-08-10T07:47:06.129Z,40.80
2022-08-10T07:50:01.609Z,41.26
2022-08-10T07:52:52.374Z,41.74
2022-08-10T07:56:04.296Z,42.10
2022-08-10T07:59:04.790Z,42.67
2022-08-10T08:01:56.419Z,42.07
2022-08-10T08:04:45.830Z,40.06
2022-08-10T08:07:37.249Z,37.87
2022-08-10T08:10:29.483Z,35.82
2022-08-10T08:13:22.945Z,34.12
2022-08-10T08:16:17.750Z,32.94
2022-08-10T08:19:27.121Z,32.88
2022-08-10T08:24:06.309Z,34.22
2022-08-10T08:25:27.817Z,35.94
2022-08-10T08:28:16.328Z,37.29
2022-08-10T08:31:05.593Z,38.39
2022-08-10T08:33:55.423Z,39.20
2022-08-10T08:36:44.545Z,39.78
2022-08-10T08:39:33.747Z,40.30
2022-08-10T08:43:01.653Z,40.07
2022-08-10T08:46:20.655Z,38.53
2022-08-10T08:49:41.401Z,37.91
2022-08-10T08:54:01.295Z,38.26
2022-08-10T08:56:58.839Z,39.06
2022-08-10T09:00:40.574Z,39.59
2022-08-10T09:03:31.308Z,39.96
2022-08-10T09:06:29.831Z,40.35
2022-08-10T09:09:47.669Z,40.78
2022-08-10T09:12:53.999Z,40.99
2022-08-10T09:16:09.664Z,41.20
2022-08-10T09:19:35.661Z,41.38
2022-08-10T09:22:45.122Z,41.40
2022-08-10T09:25:43.206Z,41.28
2022-08-10T09:28:40.615Z,41.20
2022-08-10T09:31:42.246Z,40.96
2022-08-10T09:36:25.569Z,40.75
2022-08-10T09:38:54.599Z,40.47
2022-08-10T09:42:32.742Z,40.46
2022-08-10T09:45:35.261Z,40.42
2022-08-10T09:48:46.053Z,40.16
2022-08-10T09:52:07.569Z,40.08
2022-08-10T09:55:24.186Z,40.02
2022-08-10T09:59:26.859Z,40.03
2022-08-10T10:02:49.490Z,39.91
2022-08-10T10:06:04.810Z,39.79
2022-08-10T10:09:15.752Z,39.62
2022-08-10T10:12:42.354Z,39.39
2022-08-10T10:16:06.861Z,39.25
2022-08-10T10:19:51.803Z,39.26
2022-08-10T10:23:13.671Z,39.07
2022-08-10T10:26:19.958Z,38.84
2022-08-10T10:29:57.389Z,38.82
2022-08-10T10:33:20.175Z,38.91
2022-08-10T10:36:09.499Z,39.02
2022-08-10T10:39:01.657Z,38.99
2022-08-10T10:42:44.167Z,38.94
2022-08-10T10:46:04.891Z,38.94
2022-08-10T10:48:55.411Z,38.96
2022-08-10T10:52:10.440Z,38.69
2022-08-10T10:55:26.867Z,38.55
2022-08-10T10:58:39.889Z,38.40
2022-08-10T11:02:07.768Z,38.06
2022-08-10T11:05:05.885Z,37.89
2022-08-10T11:08:28.759Z,37.73
2022-08-10T11:12:01.814Z,37.73
2022-08-10T11:14:44.419Z,37.76
2022-08-10T11:18:36.926Z,37.78
2022-08-10T11:21:49.249Z,37.63
2022-08-10T11:25:11.997Z,37.62
2022-08-10T11:28:41.457Z,37.18
2022-08-10T11:31:43.624Z,36.51
2022-08-10T11:35:34.197Z,35.89
2022-08-10T11:39:16.655Z,35.48
2022-08-10T11:42:33.262Z,35.17
2022-08-10T11:45:36.951Z,34.83
2022-08-10T11:48:52.952Z,34.44
2022-08-10T11:51:55.594Z,33.82
2022-08-10T11:55:03.073Z,33.23
2022-08-10T11:58:00.824Z,32.69
2022-08-10T12:00:49.805Z,32.31
2022-08-10T12:03:41.722Z,31.97
2022-08-10T12:06:54.267Z,31.45
2022-08-10T12:10:11.623Z,30.80
2022-08-10T12:13:12.985Z,30.11
2022-08-10T12:16:18.536Z,29.45
2022-08-10T12:20:01.359Z,28.90
2022-08-10T12:23:22.420Z,28.38
2022-08-10T12:26:27.024Z,27.89
2022-08-10T12:29:30.194Z,27.47
2022-08-10T12:32:36.141Z,27.19
2022-08-10T12:36:18.293Z,26.93
2022-08-10T12:39:43.732Z,26.66
2022-08-10T12:43:01.515Z,26.46
2022-08-10T12:46:14.955Z,26.25
2022-08-10T12:49:25.752Z,26.03
2022-08-10T12:52:58.747Z,25.84
2022-08-10T12:55:53.397Z,25.70
2022-08-10T12:58:59.660Z,25.62
2022-08-10T13:02:06.328Z,25.56
2022-08-10T13:05:03.438Z,25.44
2022-08-10T13:08:27.269Z,25.39
2022-08-10T13:12:33.872Z,25.35
2022-08-10T13:14:58.447Z,25.29
2022-08-10T13:17:52.757Z,25.30
2022-08-10T13:20:41.864Z,25.27
2022-08-10T13:23:36.089Z,25.21
2022-08-10T13:26:26.185Z,25.18
2022-08-10T13:29:17.511Z,25.17
2022-08-10T13:32:13.394Z,25.16
2022-08-10T13:35:09.163Z,25.12
2022-08-10T13:37:59.009Z,25.04
2022-08-10T13:40:50.289Z,25.00
2022-08-10T13:43:50.913Z,24.98
2022-08-10T13:46:42.388Z,24.96
2022-08-10T13:49:33.393Z,24.98
2022-08-10T13:52:25.896Z,24.98
2022-08-10T13:55:17.403Z,24.99
2022-08-10T13:58:05.593Z,25.00
2022-08-10T14:00:56.159Z,25.02
2022-08-10T14:03:47.795Z,25.03
2022-08-10T14:06:38.798Z,25.00
2022-08-10T14:09:33.840Z,24.95
2022-08-10T14:12:32.024Z,24.95
2022-08-10T14:15:30.536Z,24.97
2022-08-10T14:18:19.350Z,25.01
2022-08-10T14:21:07.983Z,25.04
2022-08-10T14:23:57.207Z,25.08
2022-08-10T14:26:47.350Z,25.09
2022-08-10T14:29:46.667Z,25.08
2022-08-10T14:32:52.878Z,25.11
2022-08-10T14:36:21.108Z,25.10
2022-08-10T14:38:59.096Z,25.08
2022-08-10T14:42:04.603Z,24.95
2022-08-10T14:45:19.374Z,24.89
2022-08-10T14:48:38.448Z,24.80
2022-08-10T14:51:44.231Z,24.66
2022-08-10T14:54:35.231Z,24.54
2022-08-10T14:58:17.303Z,24.43
2022-08-10T15:00:42.803Z,24.35
2022-08-10T15:04:02.034Z,24.30
2022-08-10T15:06:55.968Z,24.27
2022-08-10T15:10:01.652Z,24.24
2022-08-10T15:12:54.763Z,24.19
2022-08-10T15:16:13.020Z,24.16
2022-08-10T15:20:00.843Z,24.14
2022-08-10T15:22:36.363Z,24.04
2022-08-10T15:25:26.272Z,23.90
2022-08-10T15:28:20.590Z,23.82
2022-08-10T15:31:13.831Z,23.78
2022-08-10T15:34:28.832Z,23.67
2022-08-10T15:37:40.564Z,23.51
2022-08-10T15:40:31.345Z,23.38
2022-08-10T15:43:27.261Z,23.28
2022-08-10T15:46:29.631Z,23.22
2022-08-10T15:50:39.975Z,23.14
2022-08-10T15:53:52.887Z,23.02
2022-08-10T15:57:03.193Z,23.00
2022-08-10T16:00:04.218Z,22.97
2022-08-10T16:03:05.807Z,22.91
2022-08-10T16:06:02.379Z,22.84
2022-08-10T16:10:24.640Z,22.76
2022-08-10T16:12:59.871Z,22.64
2022-08-10T16:16:07.560Z,22.58
2022-08-10T16:18:56.262Z,22.51
2022-08-10T16:21:59.518Z,22.42
2022-08-10T16:24:52.710Z,22.36
2022-08-10T16:27:43.444Z,22.29
2022-08-10T16:30:51.839Z,22.20
2022-08-10T16:33:53.344Z,22.12
2022-08-10T16:37:20.608Z,22.01
2022-08-10T16:40:12.619Z,21.89
2022-08-10T16:43:03.656Z,21.80
2022-08-10T16:45:56.085Z,21.72
2022-08-10T16:48:49.900Z,21.60
2022-08-10T16:51:40.045Z,21.47
2022-08-10T16:54:29.504Z,21.32
2022-08-10T16:57:20.025Z,21.17
2022-08-10T17:00:10.875Z,21.02
2022-08-10T17:03:22.840Z,20.91
2022-08-10T17:06:32.154Z,20.84
2022-08-10T17:09:25.135Z,20.76
2022-08-10T17:12:16.394Z,20.67
2022-08-10T17:15:10.250Z,20.58
2022-08-10T17:18:03.945Z,20.50
2022-08-10T17:20:52.368Z,20.39
2022-08-10T17:23:47.077Z,20.29
2022-08-10T17:26:38.461Z,20.18
2022-08-10T17:29:53.511Z,20.10
2022-08-10T17:32:59.366Z,19.99
2022-08-10T17:35:52.893Z,19.90
2022-08-10T17:38:47.031Z,19.82
2022-08-10T17:41:37.949Z,19.73
2022-08-10T17:44:27.352Z,19.66
2022-08-10T17:47:16.210Z,19.59
2022-08-10T17:50:06.280Z,19.52
2022-08-10T17:53:13.298Z,19.43
2022-08-10T17:56:02.887Z,19.30
2022-08-10T17:59:07.265Z,19.50
2022-08-10T18:02:10.668Z,20.80
2022-08-10T18:04:59.940Z,21.10
2022-08-10T18:07:58.837Z,20.46
2022-08-10T18:10:52.035Z,20.01
2022-08-10T18:13:56.491Z,19.67
2022-08-10T18:16:46.882Z,19.39
2022-08-10T18:19:37.587Z,19.17
2022-08-10T18:22:27.027Z,18.97
2022-08-10T18:25:24.177Z,19.10
2022-08-10T18:28:19.739Z,20.27
2022-08-10T18:31:11.889Z,20.53
2022-08-10T18:34:02.398Z,19.90
2022-08-10T18:36:52.754Z,19.41
2022-08-10T18:39:44.762Z,19.04
2022-08-10T18:42:50.180Z,19.06
2022-08-10T18:45:44.091Z,20.19
2022-08-10T18:48:51.341Z,21.00
2022-08-10T18:51:46.946Z,21.54
2022-08-10T18:54:45.673Z,21.67
2022-08-10T18:57:48.870Z,20.75
2022-08-10T19:00:58.805Z,19.92
2022-08-10T19:03:55.299Z,19.32
2022-08-10T19:06:49.432Z,19.21
2022-08-10T19:10:18.375Z,20.21
2022-08-10T19:13:54.094Z,21.04
2022-08-10T19:17:06.004Z,21.53
2022-08-10T19:20:55.690Z,21.39
2022-08-10T19:24:25.555Z,20.10
2022-08-10T19:27:57.671Z,19.28
2022-08-10T19:31:10.446Z,18.67
2022-08-10T19:34:25.590Z,18.71
2022-08-10T19:37:38.350Z,19.79
2022-08-10T19:41:09.457Z,20.48
2022-08-10T19:44:38.791Z,20.26
2022-08-10T19:48:12.605Z,19.18
2022-08-10T19:51:13.911Z,18.36
2022-08-10T19:54:38.455Z,18.23
2022-08-10T19:57:50.215Z,19.36
2022-08-10T20:00:54.934Z,20.04
2022-08-10T20:03:56.220Z,20.30
2022-08-10T20:07:09.949Z,20.52
2022-08-10T20:10:23.790Z,20.36
2022-08-10T20:13:42.188Z,19.27
2022-08-10T20:16:37.998Z,18.37
2022-08-10T20:19:54.783Z,17.80
2022-08-10T20:22:50.662Z,17.83
2022-08-10T20:25:42.796Z,18.79
2022-08-10T20:29:01.104Z,19.45
2022-08-10T20:32:20.726Z,19.84
2022-08-10T20:35:40.260Z,20.07
2022-08-10T20:38:41.044Z,20.27
2022-08-10T20:42:04.173Z,20.43
2022-08-10T20:45:04.277Z,20.53
2022-08-10T20:48:20.920Z,20.00
2022-08-10T20:51:15.396Z,18.78
2022-08-10T20:54:06.621Z,17.96
2022-08-10T20:57:55.136Z,17.68
2022-08-10T21:01:18.618Z,18.73
2022-08-10T21:05:05.330Z,19.34
2022-08-10T21:08:15.050Z,19.67
2022-08-10T21:11:23.347Z,19.75
2022-08-10T21:14:42.324Z,18.97
2022-08-10T21:17:48.989Z,17.84
2022-08-10T21:21:41.198Z,17.51
2022-08-10T21:24:52.037Z,18.49
2022-08-10T21:27:58.289Z,19.10
2022-08-10T21:30:59.322Z,19.47
2022-08-10T21:34:07.652Z,19.73
2022-08-10T21:37:07.874Z,19.94
2022-08-10T21:40:35.182Z,20.09
2022-08-10T21:44:28.560Z,20.17
2022-08-10T21:48:16.854Z,19.64
2022-08-10T21:52:12.856Z,18.18
2022-08-10T21:55:57.100Z,17.14
2022-08-10T21:59:30.615Z,17.10
2022-08-10T22:02:50.905Z,18.21
2022-08-10T22:05:59.026Z,18.80
2022-08-10T22:09:24.754Z,19.08
2022-08-10T22:12:34.906Z,19.25
2022-08-10T22:16:05.292Z,19.37
2022-08-10T22:19:18.119Z,19.53
2022-08-10T22:23:00.004Z,19.65
2022-08-10T22:26:37.274Z,19.71
2022-08-10T22:29:55.028Z,19.78
2022-08-10T22:33:30.346Z,19.85
2022-08-10T22:37:05.389Z,19.36
2022-08-10T22:40:45.148Z,17.95
2022-08-10T22:43:55.404Z,16.92
2022-08-10T22:47:03.357Z,16.70
2022-08-10T22:49:53.237Z,17.64
2022-08-10T22:53:01.654Z,18.20
2022-08-10T22:56:15.715Z,18.50
2022-08-10T22:59:06.861Z,18.70
2022-08-10T23:02:07.494Z,18.85
2022-08-10T23:05:24.801Z,18.97
2022-08-10T23:08:29.824Z,19.08
2022-08-10T23:11:32.667Z,19.17
2022-08-10T23:14:33.664Z,19.22
2022-08-10T23:18:00.916Z,19.25
2022-08-10T23:20:51.916Z,19.28
2022-08-10T23:23:42.352Z,19.31
2022-08-10T23:26:33.255Z,19.35
2022-08-10T23:29:24.064Z,19.37
2022-08-10T23:32:12.349Z,19.37
2022-08-10T23:36:13.110Z,19.35
2022-08-10T23:38:29.620Z,19.30
2022-08-10T23:41:30.291Z,18.95
2022-08-10T23:44:20.954Z,17.80
2022-08-10T23:47:13.943Z,17.19
2022-08-10T23:50:03.896Z,17.85
2022-08-10T23:53:02.409Z,18.36
2022-08-10T23:56:19.905Z,18.61
2022-08-10T23:59:15.003Z,18.76
